createdAt,value
2024-05-09T00:00:18.614Z,14.70
2024-05-09T00:03:14.849Z,14.67
2024-05-09T00:06:02.807Z,14.62
2024-05-09T00:08:53.229Z,14.59
2024-05-09T00:11:47.094Z,14.56
2024-05-09T00:14:36.152Z,14.50
2024-05-09T00:17:25.096Z,14.46
2024-05-09T00:20:17.936Z,14.48
2024-05-09T00:23:13.809Z,14.43
2024-05-09T00:26:01.981Z,14.43
2024-05-09T00:28:52.537Z,14.40
2024-05-09T00:31:40.391Z,14.43
2024-05-09T00:34:29.865Z,14.44
2024-05-09T00:37:19.385Z,14.43
2024-05-09T00:40:15.056Z,14.40
2024-05-09T00:43:12.959Z,14.39
2024-05-09T00:46:02.501Z,14.39
2024-05-09T00:48:50.589Z,14.40
2024-05-09T00:51:42.641Z,14.40
2024-05-09T00:54:31.066Z,14.39
2024-05-09T00:57:19.896Z,14.41
2024-05-09T01:00:18.548Z,14.41
2024-05-09T01:03:16.201Z,14.39
2024-05-09T01:06:06.506Z,14.37
2024-05-09T01:08:55.560Z,14.38
2024-05-09T01:11:43.417Z,14.34
2024-05-09T01:14:34.534Z,14.33
2024-05-09T01:17:23.488Z,14.30
2024-05-09T01:20:19.787Z,14.30
2024-05-09T01:23:12.020Z,14.28
2024-05-09T01:26:00.653Z,14.26
2024-05-09T01:28:48.918Z,14.22
2024-05-09T01:31:37.450Z,14.20
2024-05-09T01:34:27.057Z,14.20
2024-05-09T01:37:14.916Z,14.11
2024-05-09T01:40:03.597Z,14.14
2024-05-09T01:42:51.452Z,14.08
2024-05-09T01:45:40.653Z,14.11
2024-05-09T01:48:29.242Z,14.10
2024-05-09T01:51:17.983Z,14.12
2024-05-09T01:54:07.617Z,14.09
2024-05-09T01:56:56.031Z,14.13
2024-05-09T01:59:44.108Z,14.11
2024-05-09T02:02:33.124Z,14.07
2024-05-09T02:05:21.661Z,14.07
2024-05-09T02:08:22.145Z,13.97
2024-05-09T02:11:10.798Z,14.00
2024-05-09T02:13:58.608Z,14.06
2024-05-09T02:16:47.920Z,14.10
2024-05-09T02:19:37.683Z,14.12
2024-05-09T02:22:27.083Z,14.13
2024-05-09T02:25:14.970Z,14.11
2024-05-09T02:28:03.093Z,14.09
2024-05-09T02:30:53.928Z,14.10
2024-05-09T02:33:43.737Z,14.08
2024-05-09T02:36:34.972Z,13.99
2024-05-09T02:39:23.308Z,14.01
2024-05-09T02:42:11.570Z,13.98
2024-05-09T02:45:00.378Z,13.97
2024-05-09T02:47:49.873Z,13.97
2024-05-09T02:50:42.172Z,13.91
2024-05-09T02:53:31.834Z,13.89
2024-05-09T02:56:22.032Z,13.91
2024-05-09T02:59:13.125Z,13.89
2024-05-09T03:02:02.549Z,13.89
2024-05-09T03:04:51.845Z,13.88
2024-05-09T03:07:48.972Z,13.84
2024-05-09T03:10:39.966Z,13.84
2024-05-09T03:16:37.957Z,13.77
2024-05-09T03:19:26.938Z,13.74
2024-05-09T03:22:17.195Z,13.75
2024-05-09T03:25:07.611Z,13.74
2024-05-09T03:27:55.443Z,13.73
2024-05-09T03:30:43.513Z,13.72
2024-05-09T03:33:31.581Z,13.73
2024-05-09T03:36:27.327Z,13.72
2024-05-09T03:39:16.656Z,13.71
2024-05-09T03:42:10.963Z,13.70
2024-05-09T03:44:59.167Z,13.69
2024-05-09T03:47:47.938Z,13.71
2024-05-09T03:50:38.076Z,13.71
2024-05-09T03:53:27.119Z,13.71
2024-05-09T03:56:15.943Z,13.72
2024-05-09T03:59:05.981Z,13.66
2024-05-09T04:01:53.936Z,13.69
2024-05-09T04:04:45.037Z,13.68
2024-05-09T04:07:47.306Z,13.62
2024-05-09T04:10:35.687Z,13.68
2024-05-09T04:13:23.764Z,13.72
2024-05-09T04:16:14.480Z,13.75
2024-05-09T04:19:03.267Z,13.77
2024-05-09T04:21:53.545Z,13.79
2024-05-09T04:24:43.462Z,13.82
2024-05-09T04:27:31.220Z,13.87
2024-05-09T04:30:34.755Z,13.87
2024-05-09T04:33:28.363Z,13.95
2024-05-09T04:36:17.742Z,14.08
2024-05-09T04:39:05.408Z,14.20
2024-05-09T04:41:54.129Z,14.25
2024-05-09T04:44:42.038Z,14.38
2024-05-09T04:47:36.009Z,14.43
2024-05-09T04:50:33.810Z,14.50
2024-05-09T04:56:28.819Z,14.64
2024-05-09T04:59:19.533Z,14.64
2024-05-09T05:02:09.115Z,14.61
2024-05-09T05:04:57.485Z,14.63
2024-05-09T05:07:57.047Z,14.65
2024-05-09T05:10:48.102Z,14.68
2024-05-09T05:13:39.449Z,14.76
2024-05-09T05:16:30.056Z,14.82
2024-05-09T05:19:18.027Z,14.87
2024-05-09T05:22:07.924Z,14.99
2024-05-09T05:24:55.924Z,15.10
2024-05-09T05:27:45.602Z,15.18
2024-05-09T05:30:37.424Z,15.35
2024-05-09T05:33:30.885Z,15.46
2024-05-09T05:36:23.994Z,15.52
2024-05-09T05:39:14.192Z,15.62
2024-05-09T05:42:02.735Z,15.71
2024-05-09T05:44:51.277Z,15.85
2024-05-09T05:47:41.061Z,15.94
2024-05-09T05:50:35.489Z,16.01
2024-05-09T05:53:26.124Z,16.08
2024-05-09T05:56:14.797Z,16.14
2024-05-09T05:59:02.894Z,16.27
2024-05-09T06:01:53.347Z,16.39
2024-05-09T06:04:42.532Z,16.47
2024-05-09T06:07:32.965Z,16.54
2024-05-09T06:10:25.788Z,16.56
2024-05-09T06:13:20.492Z,16.64
2024-05-09T06:16:08.377Z,16.75
2024-05-09T06:18:58.365Z,16.84
2024-05-09T06:21:47.333Z,16.93
2024-05-09T06:24:35.682Z,17.08
2024-05-09T06:27:25.739Z,17.20
2024-05-09T06:30:25.675Z,17.31
2024-05-09T06:33:18.880Z,17.46
2024-05-09T06:36:08.413Z,17.59
2024-05-09T06:38:56.248Z,17.72
2024-05-09T06:41:50.592Z,17.84
2024-05-09T06:44:39.676Z,17.93
2024-05-09T06:47:28.558Z,18.04
2024-05-09T06:50:23.622Z,18.16
2024-05-09T06:53:19.021Z,18.25
2024-05-09T06:56:08.141Z,18.36
2024-05-09T06:58:56.575Z,18.53
2024-05-09T07:01:44.825Z,18.64
2024-05-09T07:04:32.906Z,18.76
2024-05-09T07:07:20.910Z,18.89
2024-05-09T07:10:12.239Z,19.01
2024-05-09T07:13:02.736Z,19.11
2024-05-09T07:15:53.279Z,19.22
2024-05-09T07:18:41.937Z,19.30
2024-05-09T07:21:38.563Z,19.40
2024-05-09T07:24:37.673Z,19.54
2024-05-09T07:27:28.262Z,19.64
2024-05-09T07:30:27.871Z,19.74
2024-05-09T07:33:39.106Z,19.90
2024-05-09T07:36:27.217Z,20.01
2024-05-09T07:39:23.531Z,20.27
2024-05-09T07:42:11.336Z,20.63
2024-05-09T07:45:20.556Z,20.89
2024-05-09T07:54:11.627Z,21.26
2024-05-09T07:57:01.023Z,21.26
2024-05-09T07:59:50.023Z,21.26
2024-05-09T08:02:37.812Z,21.24
2024-05-09T08:05:26.081Z,21.24
2024-05-09T08:08:14.171Z,21.25
2024-05-09T08:11:09.239Z,21.34
2024-05-09T08:13:58.286Z,21.40
2024-05-09T08:16:47.397Z,21.51
2024-05-09T08:22:32.098Z,21.71
2024-05-09T08:25:20.109Z,21.89
2024-05-09T08:28:08.796Z,22.22
2024-05-09T08:30:58.244Z,22.69
2024-05-09T08:33:54.586Z,23.15
2024-05-09T08:36:45.598Z,23.90
2024-05-09T08:39:33.869Z,24.61
2024-05-09T08:42:24.741Z,24.95
2024-05-09T08:45:15.603Z,25.46
2024-05-09T08:48:08.035Z,26.12
2024-05-09T08:50:59.870Z,26.77
2024-05-09T08:53:47.745Z,27.15
2024-05-09T08:56:39.234Z,27.06
2024-05-09T08:59:44.370Z,26.91
2024-05-09T09:02:39.076Z,27.27
2024-05-09T09:05:31.638Z,27.41
2024-05-09T09:08:22.126Z,27.70
2024-05-09T09:11:10.880Z,28.26
2024-05-09T09:13:58.625Z,28.73
2024-05-09T09:16:49.263Z,29.21
2024-05-09T09:19:40.532Z,29.61
2024-05-09T09:22:32.541Z,29.96
2024-05-09T09:25:22.858Z,29.46
2024-05-09T09:28:11.118Z,28.51
2024-05-09T09:31:03.562Z,28.35
2024-05-09T09:33:52.657Z,28.81
2024-05-09T09:36:44.333Z,29.26
2024-05-09T09:39:36.146Z,29.62
2024-05-09T09:42:30.424Z,30.31
2024-05-09T09:45:19.590Z,31.01
2024-05-09T09:48:10.496Z,31.04
2024-05-09T09:51:00.713Z,31.43
2024-05-09T09:53:52.967Z,31.84
2024-05-09T09:56:46.460Z,31.50
2024-05-09T09:59:43.657Z,31.34
2024-05-09T10:02:32.297Z,30.64
2024-05-09T10:05:29.914Z,30.65
2024-05-09T10:08:19.500Z,30.11
2024-05-09T10:11:07.455Z,29.20
2024-05-09T10:13:58.180Z,28.45
2024-05-09T10:16:57.161Z,27.91
2024-05-09T10:19:46.473Z,28.69
2024-05-09T10:22:35.880Z,29.80
2024-05-09T10:25:25.180Z,30.87
2024-05-09T10:28:25.681Z,31.58
2024-05-09T10:31:16.663Z,32.24
2024-05-09T10:34:07.476Z,32.47
2024-05-09T10:36:56.029Z,31.58
2024-05-09T10:39:44.221Z,31.35
2024-05-09T10:42:34.514Z,32.14
2024-05-09T10:45:25.180Z,32.69
2024-05-09T10:48:13.198Z,33.10
2024-05-09T10:51:01.822Z,33.36
2024-05-09T10:53:49.636Z,32.40
2024-05-09T10:56:41.065Z,31.20
2024-05-09T10:59:39.868Z,30.45
2024-05-09T11:02:29.219Z,29.86
2024-05-09T11:05:18.767Z,29.11
2024-05-09T11:08:08.010Z,28.51
2024-05-09T11:11:00.507Z,28.02
2024-05-09T11:13:55.027Z,27.68
2024-05-09T11:16:43.304Z,28.15
2024-05-09T11:19:37.095Z,28.84
2024-05-09T11:22:33.519Z,28.78
2024-05-09T11:25:25.503Z,29.06
2024-05-09T11:28:17.367Z,29.82
2024-05-09T11:31:09.163Z,30.58
2024-05-09T11:33:58.170Z,30.83
2024-05-09T11:36:46.002Z,30.80
2024-05-09T11:39:35.462Z,30.46
2024-05-09T11:42:26.250Z,29.82
2024-05-09T11:45:24.747Z,29.40
2024-05-09T11:48:12.696Z,29.29
2024-05-09T11:51:01.647Z,29.20
2024-05-09T11:53:50.066Z,29.18
2024-05-09T11:56:40.474Z,29.02
2024-05-09T11:59:28.346Z,28.90
2024-05-09T12:02:17.408Z,28.74
2024-05-09T12:05:06.370Z,28.67
2024-05-09T12:07:56.562Z,28.55
2024-05-09T12:10:45.034Z,28.36
2024-05-09T12:13:36.014Z,28.22
2024-05-09T12:16:26.633Z,28.13
2024-05-09T12:19:14.774Z,28.16
2024-05-09T12:22:05.154Z,28.01
2024-05-09T12:24:53.167Z,27.91
2024-05-09T12:27:41.507Z,27.83
2024-05-09T12:30:36.632Z,27.77
2024-05-09T12:33:30.243Z,27.77
2024-05-09T12:36:18.792Z,27.78
2024-05-09T12:39:23.469Z,27.77
2024-05-09T12:42:16.610Z,27.73
2024-05-09T12:45:10.804Z,27.67
2024-05-09T12:48:01.379Z,27.66
2024-05-09T12:50:49.721Z,27.76
2024-05-09T12:53:46.601Z,27.98
2024-05-09T12:56:34.589Z,28.12
2024-05-09T12:59:22.373Z,28.12
2024-05-09T13:02:12.492Z,28.07
2024-05-09T13:05:01.527Z,28.11
2024-05-09T13:07:56.816Z,28.11
2024-05-09T13:10:46.683Z,28.16
2024-05-09T13:13:35.453Z,28.12
2024-05-09T13:16:27.242Z,28.11
2024-05-09T13:19:17.044Z,28.02
2024-05-09T13:22:06.923Z,28.00
2024-05-09T13:24:56.236Z,27.93
2024-05-09T13:27:47.238Z,27.89
2024-05-09T13:30:40.292Z,27.84
2024-05-09T13:33:31.955Z,27.68
2024-05-09T13:36:28.520Z,27.52
2024-05-09T13:39:16.467Z,27.42
2024-05-09T13:42:04.955Z,27.21
2024-05-09T13:44:57.232Z,26.78
2024-05-09T13:47:49.463Z,26.70
2024-05-09T13:50:39.500Z,26.55
2024-05-09T13:53:27.463Z,26.35
2024-05-09T13:56:16.500Z,26.31
2024-05-09T13:59:05.476Z,26.00
2024-05-09T14:01:55.059Z,26.05
2024-05-09T14:04:43.495Z,26.08
2024-05-09T14:07:33.250Z,25.94
2024-05-09T14:10:28.482Z,25.68
2024-05-09T14:13:19.378Z,25.65
2024-05-09T14:16:08.192Z,25.44
2024-05-09T14:18:56.453Z,25.11
2024-05-09T14:21:45.501Z,24.81
2024-05-09T14:24:34.039Z,24.77
2024-05-09T14:27:29.593Z,24.72
2024-05-09T14:30:26.435Z,24.55
2024-05-09T14:33:26.934Z,24.53
2024-05-09T14:36:17.359Z,24.64
2024-05-09T14:39:09.660Z,24.83
2024-05-09T14:41:57.699Z,24.89
2024-05-09T14:44:48.401Z,24.99
2024-05-09T14:47:42.506Z,25.12
2024-05-09T14:50:37.480Z,25.21
2024-05-09T14:53:31.475Z,25.24
2024-05-09T14:56:19.443Z,25.14
2024-05-09T14:59:09.486Z,24.88
2024-05-09T15:02:02.551Z,24.80
2024-05-09T15:04:58.197Z,24.68
2024-05-09T15:07:50.378Z,24.74
2024-05-09T15:10:43.419Z,24.77
2024-05-09T15:13:33.261Z,24.76
2024-05-09T15:16:22.719Z,24.87
2024-05-09T15:19:15.256Z,25.00
2024-05-09T15:22:15.544Z,25.03
2024-05-09T15:25:08.908Z,25.15
2024-05-09T15:27:58.714Z,25.10
2024-05-09T15:30:48.367Z,25.14
2024-05-09T15:33:39.734Z,25.37
2024-05-09T15:36:33.970Z,25.64
2024-05-09T15:39:28.632Z,25.84
2024-05-09T15:42:19.125Z,26.07
2024-05-09T15:45:10.347Z,26.60
2024-05-09T15:48:00.746Z,27.16
2024-05-09T15:50:49.605Z,27.83
2024-05-09T15:53:48.854Z,27.97
2024-05-09T15:56:38.736Z,28.16
2024-05-09T15:59:27.105Z,28.10
2024-05-09T16:02:18.021Z,28.17
2024-05-09T16:05:08.117Z,27.91
2024-05-09T16:07:58.006Z,27.46
2024-05-09T16:10:52.241Z,26.96
2024-05-09T16:14:01.738Z,26.68
2024-05-09T16:16:51.456Z,26.21
2024-05-09T16:19:43.740Z,26.11
2024-05-09T16:22:33.716Z,26.09
2024-05-09T16:25:27.707Z,25.91
2024-05-09T16:28:16.124Z,25.68
2024-05-09T16:31:18.222Z,25.27
2024-05-09T16:34:06.376Z,25.06
2024-05-09T16:36:57.154Z,24.92
2024-05-09T16:39:45.485Z,24.88
2024-05-09T16:42:52.958Z,24.64
2024-05-09T16:45:47.935Z,24.45
2024-05-09T16:48:38.944Z,24.58
2024-05-09T16:51:26.814Z,24.66
2024-05-09T16:54:15.653Z,24.77
2024-05-09T16:57:04.211Z,24.91
2024-05-09T16:59:52.391Z,25.01
2024-05-09T17:02:43.858Z,25.04
2024-05-09T17:05:41.445Z,24.78
2024-05-09T17:08:31.877Z,24.71
2024-05-09T17:11:23.022Z,24.77
2024-05-09T17:14:11.031Z,24.65
2024-05-09T17:17:10.234Z,24.50
2024-05-09T17:20:18.746Z,24.34
2024-05-09T17:23:14.850Z,24.32
2024-05-09T17:26:11.204Z,24.30
2024-05-09T17:29:00.320Z,24.23
2024-05-09T17:31:49.879Z,24.12
2024-05-09T17:34:37.878Z,24.14
2024-05-09T17:37:29.505Z,24.12
2024-05-09T17:40:27.091Z,23.97
2024-05-09T17:43:20.932Z,23.82
2024-05-09T17:46:11.161Z,23.84
2024-05-09T17:49:01.548Z,23.87
2024-05-09T17:51:57.521Z,23.90
2024-05-09T17:54:46.607Z,23.81
2024-05-09T17:57:34.947Z,23.80
2024-05-09T18:00:37.782Z,23.78
2024-05-09T18:03:40.047Z,23.81
2024-05-09T18:06:55.022Z,23.72
2024-05-09T18:09:46.351Z,23.69
2024-05-09T18:12:34.474Z,23.67
2024-05-09T18:15:25.627Z,23.65
2024-05-09T18:18:29.028Z,23.55
2024-05-09T18:21:21.684Z,23.47
2024-05-09T18:24:19.733Z,23.42
2024-05-09T18:27:09.484Z,23.35
2024-05-09T18:30:27.312Z,23.23
2024-05-09T18:33:30.588Z,23.08
2024-05-09T18:36:22.114Z,23.00
2024-05-09T18:39:17.890Z,22.95
2024-05-09T18:42:16.185Z,22.87
2024-05-09T18:45:09.374Z,22.74
2024-05-09T18:48:00.418Z,22.61
2024-05-09T18:51:21.320Z,22.50
2024-05-09T18:54:11.106Z,22.40
2024-05-09T18:57:03.791Z,22.33
2024-05-09T18:59:56.578Z,22.22
2024-05-09T19:02:51.527Z,22.13
2024-05-09T19:05:49.247Z,22.06
2024-05-09T19:08:44.943Z,21.97
2024-05-09T19:11:40.131Z,21.80
2024-05-09T19:14:27.934Z,21.81
2024-05-09T19:17:17.748Z,21.74
2024-05-09T19:20:14.582Z,21.69
2024-05-09T19:23:18.675Z,21.62
2024-05-09T19:26:11.883Z,21.54
2024-05-09T19:29:00.310Z,21.51
2024-05-09T19:31:51.993Z,21.42
2024-05-09T19:34:41.107Z,21.41
2024-05-09T19:37:30.709Z,21.32
2024-05-09T19:40:25.082Z,21.26
2024-05-09T19:43:20.640Z,21.22
2024-05-09T19:46:08.883Z,21.15
2024-05-09T19:48:57.350Z,21.15
2024-05-09T19:51:46.568Z,21.15
2024-05-09T19:54:34.769Z,21.14
2024-05-09T19:57:24.562Z,21.11
2024-05-09T20:00:21.892Z,21.06
2024-05-09T20:03:16.221Z,21.07
2024-05-09T20:06:05.663Z,21.04
2024-05-09T20:08:57.211Z,21.03
2024-05-09T20:11:46.417Z,20.93
2024-05-09T20:14:35.949Z,20.81
2024-05-09T20:17:28.867Z,20.68
2024-05-09T20:20:28.242Z,20.57
2024-05-09T20:23:30.265Z,20.52
2024-05-09T20:26:21.639Z,20.41
2024-05-09T20:29:11.403Z,20.39
2024-05-09T20:31:59.812Z,20.31
2024-05-09T20:34:52.346Z,20.19
2024-05-09T20:37:46.988Z,20.24
2024-05-09T20:40:38.251Z,20.20
2024-05-09T20:43:39.948Z,20.23
2024-05-09T20:46:30.386Z,20.21
2024-05-09T20:49:20.586Z,20.23
2024-05-09T20:52:09.691Z,20.26
2024-05-09T20:54:59.599Z,20.28
2024-05-09T20:57:47.528Z,20.29
2024-05-09T21:00:47.010Z,20.36
2024-05-09T21:03:41.791Z,20.35
2024-05-09T21:06:32.052Z,20.47
2024-05-09T21:09:25.532Z,20.49
2024-05-09T21:12:14.050Z,20.55
2024-05-09T21:15:09.956Z,20.56
2024-05-09T21:21:08.800Z,20.60
2024-05-09T21:23:57.838Z,20.58
2024-05-09T21:26:46.666Z,20.56
2024-05-09T21:29:35.020Z,20.52
2024-05-09T21:32:24.020Z,20.45
2024-05-09T21:35:14.704Z,20.39
2024-05-09T21:38:07.943Z,20.37
2024-05-09T21:41:01.830Z,20.41
2024-05-09T21:43:50.414Z,20.40
2024-05-09T21:46:38.207Z,20.41
2024-05-09T21:49:26.452Z,20.38
2024-05-09T21:52:15.543Z,20.35
2024-05-09T21:55:06.410Z,20.30
2024-05-09T21:58:03.297Z,20.31
2024-05-09T22:00:52.869Z,20.28
2024-05-09T22:03:41.904Z,20.26
2024-05-09T22:06:31.855Z,20.23
2024-05-09T22:09:24.407Z,20.26
2024-05-09T22:12:15.958Z,20.22
2024-05-09T22:15:05.758Z,20.23
2024-05-09T22:17:57.458Z,20.22
2024-05-09T22:20:46.769Z,20.22
2024-05-09T22:23:35.872Z,20.21
2024-05-09T22:26:26.890Z,20.20
2024-05-09T22:29:15.064Z,20.20
2024-05-09T22:32:02.987Z,20.19
2024-05-09T22:34:52.290Z,20.18
2024-05-09T22:37:41.365Z,20.18
2024-05-09T22:40:45.174Z,20.18
2024-05-09T22:43:36.311Z,20.17
2024-05-09T22:46:26.266Z,20.17
2024-05-09T22:49:14.312Z,20.19
2024-05-09T22:52:03.835Z,20.19
2024-05-09T22:54:59.411Z,20.19
2024-05-09T22:57:48.377Z,20.19
2024-05-09T23:00:37.556Z,20.15
2024-05-09T23:03:32.998Z,20.13
2024-05-09T23:06:31.694Z,20.14
2024-05-09T23:09:24.178Z,20.09
2024-05-09T23:12:18.664Z,20.09
2024-05-09T23:15:07.954Z,20.06
2024-05-09T23:17:57.850Z,20.05
2024-05-09T23:20:46.080Z,20.02
2024-05-09T23:23:35.950Z,20.01
2024-05-09T23:26:23.987Z,19.98
2024-05-09T23:29:11.792Z,19.95
2024-05-09T23:35:02.352Z,19.92
2024-05-09T23:37:56.140Z,19.92
2024-05-09T23:40:46.307Z,19.87
2024-05-09T23:43:36.432Z,19.92
2024-05-09T23:46:25.968Z,19.89
2024-05-09T23:49:14.779Z,19.90
2024-05-09T23:52:04.484Z,19.88
2024-05-09T23:54:53.487Z,19.84
2024-05-09T23:57:43.337Z,19.75
